Time;durP1;ratioP1;P1;durP2;ratioP2;P2;SDS_P1;SDS_P2;PMS_P1;PMS_P2;Temp;Humidity;BMP_temperature;BMP_pressure;BME280_temperature;BME280_humidity;BME280_pressure;Samples;Min_cycle;Max_cycle;Signal;HPM_P1;HPM_P2
2022/10/27 00:02:13;;;;;;;19.65;7.90;;;;;;;;;;5055604;28;20052;-65
2022/10/27 00:04:40;;;;;;;10.68;6.78;;;;;;;;;;5055752;28;20049;-64
2022/10/27 00:07:06;;;;;;;11.98;7.05;;;;;;;;;;5055808;28;20073;-65
2022/10/27 00:09:33;;;;;;;13.80;7.45;;;;;;;;;;5054815;28;20136;-65
2022/10/27 00:11:59;;;;;;;14.90;7.65;;;;;;;;;;5055466;28;20072;-64
2022/10/27 00:14:26;;;;;;;13.90;7.63;;;;;;;;;;5055451;28;20137;-64
2022/10/27 00:16:54;;;;;;;17.30;7.88;;;;;;;;;;5055404;28;20506;-65
2022/10/27 00:19:21;;;;;;;18.20;7.13;;;;;;;;;;5054542;28;20135;-65
2022/10/27 00:21:50;;;;;;;12.45;7.05;;;;;;;;;;5054336;28;20080;-65
2022/10/27 00:24:20;;;;;;;13.27;7.22;;;;;;;;;;5055233;28;20041;-65
2022/10/27 00:26:46;;;;;;;11.60;6.75;;;;;;;;;;5055347;28;20053;-65
2022/10/27 00:29:13;;;;;;;11.93;7.22;;;;;;;;;;5054325;28;20131;-66
2022/10/27 00:31:39;;;;;;;11.88;6.88;;;;;;;;;;5055657;28;20072;-65
2022/10/27 00:34:06;;;;;;;12.18;6.93;;;;;;;;;;5055030;28;20565;-64
2022/10/27 00:36:32;;;;;;;13.55;6.85;;;;;;;;;;5054847;28;20462;-64
2022/10/27 00:38:59;;;;;;;8.45;5.90;;;;;;;;;;5054464;28;20136;-66
2022/10/27 00:41:30;;;;;;;9.50;6.30;;;;;;;;;;5055015;28;20072;-65
2022/10/27 00:43:58;;;;;;;9.32;6.72;;;;;;;;;;5054932;28;20554;-65
2022/10/27 00:46:44;;;;;;;13.00;6.18;;;;;;;;;;5054905;28;20091;-64
2022/10/27 00:49:12;;;;;;;10.35;6.20;;;;;;;;;;5039898;28;20490;-63
2022/10/27 00:51:47;;;;;;;14.88;6.78;;;;;;;;;;5037262;28;20060;-62
2022/10/27 00:54:14;;;;;;;13.55;7.05;;;;;;;;;;5053481;28;20065;-63
2022/10/27 00:56:41;;;;;;;15.88;6.68;;;;;;;;;;5054918;28;20122;-63
2022/10/27 00:59:08;;;;;;;13.55;7.10;;;;;;;;;;5053844;28;20102;-63
2022/10/27 01:01:35;;;;;;;11.98;7.38;;;;;;;;;;5054788;28;20103;-63
2022/10/27 01:04:02;;;;;;;13.32;7.50;;;;;;;;;;5053343;28;20049;-63
2022/10/27 01:06:29;;;;;;;14.05;7.50;;;;;;;;;;5052346;28;20136;-62
2022/10/27 01:08:56;;;;;;;16.33;6.32;;;;;;;;;;5052457;28;20516;-62
2022/10/27 01:11:23;;;;;;;9.75;6.70;;;;;;;;;;5037055;28;20044;-63
2022/10/27 01:13:49;;;;;;;10.70;6.40;;;;;;;;;;5054641;28;20048;-62
2022/10/27 01:16:47;;;;;;;10.38;5.97;;;;;;;;;;5053261;28;20076;-62
2022/10/27 01:19:37;;;;;;;11.70;6.18;;;;;;;;;;5053336;28;20049;-63
2022/10/27 01:22:18;;;;;;;11.98;5.97;;;;;;;;;;5053163;28;20098;-63
2022/10/27 01:24:51;;;;;;;9.60;6.13;;;;;;;;;;5053954;28;20564;-63
2022/10/27 01:27:55;;;;;;;11.73;5.95;;;;;;;;;;5054188;28;20045;-62
2022/10/27 01:30:22;;;;;;;11.68;6.43;;;;;;;;;;5023177;28;20083;-62
2022/10/27 01:32:52;;;;;;;15.00;5.85;;;;;;;;;;5052978;28;20080;-63
2022/10/27 01:35:26;;;;;;;12.25;6.70;;;;;;;;;;5053806;28;20129;-63
2022/10/27 01:38:07;;;;;;;9.88;6.15;;;;;;;;;;5053714;28;20091;-63
2022/10/27 01:40:58;;;;;;;11.15;6.82;;;;;;;;;;5052834;28;20515;-63
2022/10/27 01:43:26;;;;;;;12.38;7.20;;;;;;;;;;5052737;28;20053;-63
2022/10/27 01:45:53;;;;;;;12.70;7.50;;;;;;;;;;5052630;28;20049;-65
2022/10/27 01:48:20;;;;;;;15.50;7.43;;;;;;;;;;5051691;28;20511;-65
2022/10/27 01:50:46;;;;;;;12.20;7.07;;;;;;;;;;5036192;28;20123;-65
2022/10/27 01:53:31;;;;;;;8.65;5.97;;;;;;;;;;5054066;28;20479;-65
2022/10/27 01:56:04;;;;;;;10.32;5.45;;;;;;;;;;5036397;28;20072;-65
2022/10/27 01:58:39;;;;;;;9.32;5.53;;;;;;;;;;5052864;28;20095;-65
2022/10/27 02:01:18;;;;;;;10.00;6.03;;;;;;;;;;5053398;28;20452;-65
2022/10/27 02:04:06;;;;;;;10.55;5.50;;;;;;;;;;5053223;28;20048;-66
2022/10/27 02:06:39;;;;;;;10.80;6.30;;;;;;;;;;5052503;28;20053;-65
2022/10/27 02:09:31;;;;;;;8.25;5.75;;;;;;;;;;5052273;28;20092;-65
2022/10/27 02:11:58;;;;;;;11.18;5.38;;;;;;;;;;5053374;28;20067;-65
2022/10/27 02:14:25;;;;;;;8.82;5.38;;;;;;;;;;5052230;28;20095;-64
2022/10/27 02:16:52;;;;;;;8.82;5.47;;;;;;;;;;5051897;28;20435;-65
2022/10/27 02:19:26;;;;;;;7.53;5.57;;;;;;;;;;5051113;28;20128;-65
2022/10/27 02:21:54;;;;;;;7.70;5.53;;;;;;;;;;5051955;28;20045;-65
2022/10/27 02:24:21;;;;;;;9.98;5.57;;;;;;;;;;5051732;28;20507;-64
2022/10/27 02:26:56;;;;;;;12.20;5.78;;;;;;;;;;5035525;28;20149;-66
2022/10/27 02:29:29;;;;;;;6.57;4.97;;;;;;;;;;5035589;28;20404;-65
2022/10/27 02:31:56;;;;;;;;;;;;;;;;;;5036561;28;20495;-65
2022/10/27 02:34:23;;;;;;;12.57;5.38;;;;;;;;;;5051636;28;19966;-65
2022/10/27 02:36:49;;;;;;;7.53;5.47;;;;;;;;;;5052240;28;20466;-65
2022/10/27 02:39:16;;;;;;;9.95;5.75;;;;;;;;;;5051982;28;20079;-64
2022/10/27 02:41:43;;;;;;;8.73;5.43;;;;;;;;;;5052739;28;20107;-65
2022/10/27 02:44:09;;;;;;;7.28;5.40;;;;;;;;;;5052644;28;20048;-65
2022/10/27 02:46:36;;;;;;;11.35;5.63;;;;;;;;;;5052434;28;20098;-65
2022/10/27 02:49:03;;;;;;;9.45;5.22;;;;;;;;;;5051706;28;20045;-65
2022/10/27 02:51:29;;;;;;;10.15;6.40;;;;;;;;;;5052502;28;20049;-65
2022/10/27 02:53:56;;;;;;;9.60;6.05;;;;;;;;;;5052648;28;20127;-65
2022/10/27 02:56:23;;;;;;;11.40;5.50;;;;;;;;;;5052522;28;20099;-65
2022/10/27 02:58:49;;;;;;;8.90;6.15;;;;;;;;;;5051761;28;20095;-65
2022/10/27 03:01:16;;;;;;;11.32;5.72;;;;;;;;;;5052196;28;20077;-65
2022/10/27 03:03:43;;;;;;;12.68;5.88;;;;;;;;;;5052468;28;20423;-65
2022/10/27 03:06:09;;;;;;;9.52;5.40;;;;;;;;;;5052413;28;20102;-65
2022/10/27 03:08:36;;;;;;;8.80;5.47;;;;;;;;;;5051431;28;20049;-65
2022/10/27 03:11:02;;;;;;;10.13;6.18;;;;;;;;;;5052239;28;20127;-65
2022/10/27 03:13:29;;;;;;;14.27;6.97;;;;;;;;;;5052145;28;20127;-65
2022/10/27 03:15:55;;;;;;;13.15;5.93;;;;;;;;;;5051964;28;20045;-65
2022/10/27 03:18:22;;;;;;;10.63;5.68;;;;;;;;;;5051356;28;20139;-65
2022/10/27 03:20:49;;;;;;;9.90;5.68;;;;;;;;;;5051764;28;20052;-65
2022/10/27 03:23:15;;;;;;;12.98;5.95;;;;;;;;;;5052120;28;20132;-65
2022/10/27 03:25:43;;;;;;;13.73;6.65;;;;;;;;;;5051790;28;20480;-65
2022/10/27 03:28:14;;;;;;;12.15;7.05;;;;;;;;;;5050657;28;20056;-65
2022/10/27 03:30:41;;;;;;;8.38;5.18;;;;;;;;;;5051924;28;20110;-65
2022/10/27 03:33:07;;;;;;;6.72;5.00;;;;;;;;;;5050127;28;20504;-65
2022/10/27 03:35:34;;;;;;;8.32;4.63;;;;;;;;;;5051797;28;20049;-65
2022/10/27 03:38:01;;;;;;;6.50;5.10;;;;;;;;;;5051345;28;20493;-65
2022/10/27 03:40:28;;;;;;;8.30;5.00;;;;;;;;;;5051405;28;20495;-66
2022/10/27 03:42:57;;;;;;;7.97;4.25;;;;;;;;;;5050519;28;20048;-65
2022/10/27 03:45:27;;;;;;;6.72;4.28;;;;;;;;;;5050342;28;20049;-65
2022/10/27 03:48:00;;;;;;;6.15;4.22;;;;;;;;;;5051241;28;20072;-64
2022/10/27 03:50:27;;;;;;;6.63;4.45;;;;;;;;;;5051367;28;20045;-65
2022/10/27 03:52:54;;;;;;;6.95;4.97;;;;;;;;;;5051646;28;20139;-63
2022/10/27 03:55:21;;;;;;;8.15;4.70;;;;;;;;;;5051492;28;20500;-63
2022/10/27 03:57:47;;;;;;;8.50;4.60;;;;;;;;;;5051445;28;20072;-63
2022/10/27 04:00:15;;;;;;;5.40;4.63;;;;;;;;;;5051429;28;20079;-63
2022/10/27 04:02:42;;;;;;;5.88;4.63;;;;;;;;;;5051729;28;20128;-63
2022/10/27 04:05:08;;;;;;;5.05;4.20;;;;;;;;;;5051646;28;20056;-64
2022/10/27 04:07:35;;;;;;;8.48;5.28;;;;;;;;;;5051484;28;20563;-63
2022/10/27 04:10:02;;;;;;;7.60;5.13;;;;;;;;;;5050527;28;20491;-66
2022/10/27 04:12:28;;;;;;;8.55;5.72;;;;;;;;;;5051732;28;20413;-66
2022/10/27 04:14:55;;;;;;;12.10;5.88;;;;;;;;;;5051593;28;20045;-66
2022/10/27 04:17:22;;;;;;;8.60;5.20;;;;;;;;;;5051494;28;20518;-65
2022/10/27 04:19:48;;;;;;;9.00;4.60;;;;;;;;;;5050757;28;20140;-66
2022/10/27 04:22:15;;;;;;;7.88;4.40;;;;;;;;;;5051446;28;20128;-65
2022/10/27 04:24:41;;;;;;;7.50;4.75;;;;;;;;;;5051231;28;20073;-66
2022/10/27 04:27:08;;;;;;;9.15;5.22;;;;;;;;;;5051401;28;20053;-66
2022/10/27 04:29:35;;;;;;;7.75;4.47;;;;;;;;;;5050459;28;20049;-66
2022/10/27 04:32:01;;;;;;;5.90;4.75;;;;;;;;;;5051416;28;20076;-65
2022/10/27 04:34:28;;;;;;;11.32;5.18;;;;;;;;;;5050042;28;20053;-65
2022/10/27 04:36:54;;;;;;;6.82;4.95;;;;;;;;;;5051214;28;20118;-66
2022/10/27 04:39:21;;;;;;;9.00;4.35;;;;;;;;;;5051179;28;20086;-65
2022/10/27 04:41:48;;;;;;;6.40;4.55;;;;;;;;;;5055330;28;20084;-65
2022/10/27 04:44:14;;;;;;;8.13;4.22;;;;;;;;;;5055122;28;20143;-65
2022/10/27 04:46:41;;;;;;;7.22;4.32;;;;;;;;;;5054789;28;20098;-65
2022/10/27 04:49:07;;;;;;;7.35;4.47;;;;;;;;;;5054276;28;20076;-64
2022/10/27 04:51:34;;;;;;;8.70;5.30;;;;;;;;;;5055176;28;20076;-65
2022/10/27 04:54:00;;;;;;;5.30;4.13;;;;;;;;;;5054389;28;20049;-65
2022/10/27 04:56:27;;;;;;;6.55;5.00;;;;;;;;;;5054719;28;20080;-65
2022/10/27 04:58:54;;;;;;;11.85;6.38;;;;;;;;;;5053977;28;20131;-65
2022/10/27 05:01:22;;;;;;;11.55;8.23;;;;;;;;;;5054602;28;20304;-65
2022/10/27 05:03:49;;;;;;;9.63;7.72;;;;;;;;;;5054525;28;20048;-65
2022/10/27 05:06:15;;;;;;;9.02;6.68;;;;;;;;;;5054269;28;20072;-64
2022/10/27 05:08:42;;;;;;;8.57;6.78;;;;;;;;;;5053868;28;20130;-65
2022/10/27 05:11:09;;;;;;;9.25;6.35;;;;;;;;;;5054988;28;20411;-65
2022/10/27 05:13:40;;;;;;;7.78;5.70;;;;;;;;;;5054512;28;20053;-64
2022/10/27 05:16:07;;;;;;;8.23;5.53;;;;;;;;;;5054368;28;20128;-65
2022/10/27 05:18:34;;;;;;;4.60;4.03;;;;;;;;;;5052403;28;20045;-65
2022/10/27 05:21:00;;;;;;;5.68;3.95;;;;;;;;;;5054357;28;20132;-65
2022/10/27 05:23:27;;;;;;;11.07;4.38;;;;;;;;;;5054770;28;20136;-65
2022/10/27 05:25:54;;;;;;;7.35;4.10;;;;;;;;;;5054212;28;20154;-66
2022/10/27 05:28:21;;;;;;;7.97;4.15;;;;;;;;;;5053381;28;20505;-66
2022/10/27 05:30:48;;;;;;;6.03;4.35;;;;;;;;;;5054048;28;20045;-66
2022/10/27 05:33:14;;;;;;;6.95;4.82;;;;;;;;;;5052861;28;20076;-65
2022/10/27 05:35:44;;;;;;;5.60;4.60;;;;;;;;;;5053863;28;20140;-66
2022/10/27 05:38:11;;;;;;;6.07;4.72;;;;;;;;;;5053742;28;20057;-67
2022/10/27 05:40:37;;;;;;;8.63;6.22;;;;;;;;;;5053749;28;20084;-66
2022/10/27 05:43:04;;;;;;;11.88;5.78;;;;;;;;;;5053813;28;20507;-66
2022/10/27 05:45:30;;;;;;;11.98;5.80;;;;;;;;;;5053621;28;20491;-66
2022/10/27 05:48:02;;;;;;;10.13;5.97;;;;;;;;;;5052993;28;20091;-65
2022/10/27 05:50:29;;;;;;;10.68;5.75;;;;;;;;;;5053915;28;20080;-65
2022/10/27 05:52:55;;;;;;;8.25;5.93;;;;;;;;;;5053198;28;20067;-65
2022/10/27 05:55:23;;;;;;;10.55;6.70;;;;;;;;;;5053716;28;20128;-66
2022/10/27 05:57:57;;;;;;;8.35;6.22;;;;;;;;;;5053089;28;20079;-65
2022/10/27 06:00:25;;;;;;;7.95;6.10;;;;;;;;;;5053333;28;20471;-66
2022/10/27 06:02:55;;;;;;;7.97;6.35;;;;;;;;;;5053798;28;20048;-66
2022/10/27 06:05:21;;;;;;;9.50;6.00;;;;;;;;;;5053489;28;20076;-65
2022/10/27 06:07:49;;;;;;;6.50;5.85;;;;;;;;;;5052738;28;20518;-65
2022/10/27 06:10:16;;;;;;;8.88;5.63;;;;;;;;;;5053167;28;20135;-65
2022/10/27 06:12:43;;;;;;;7.75;5.88;;;;;;;;;;5053047;28;20087;-66
2022/10/27 06:15:10;;;;;;;6.93;5.75;;;;;;;;;;5053143;28;20582;-65
2022/10/27 06:17:36;;;;;;;10.15;5.47;;;;;;;;;;5053356;28;20139;-66
2022/10/27 06:20:03;;;;;;;9.68;5.85;;;;;;;;;;5052961;28;20472;-66
2022/10/27 06:22:30;;;;;;;8.88;6.57;;;;;;;;;;5053097;28;20508;-66
2022/10/27 06:24:57;;;;;;;12.52;6.07;;;;;;;;;;5052727;28;20053;-66
2022/10/27 06:27:23;;;;;;;7.20;5.25;;;;;;;;;;5052796;28;20080;-66
2022/10/27 06:29:50;;;;;;;8.40;5.90;;;;;;;;;;5052069;28;20091;-65
2022/10/27 06:32:16;;;;;;;7.68;5.28;;;;;;;;;;5053035;28;20048;-66
2022/10/27 06:34:43;;;;;;;10.50;6.38;;;;;;;;;;5052798;28;20049;-66
2022/10/27 06:37:10;;;;;;;11.27;7.25;;;;;;;;;;5052610;28;20083;-66
2022/10/27 06:39:37;;;;;;;10.35;6.28;;;;;;;;;;5052294;28;20564;-66
2022/10/27 06:42:03;;;;;;;11.98;6.75;;;;;;;;;;5052593;28;20092;-65
2022/10/27 06:44:30;;;;;;;12.55;6.75;;;;;;;;;;5052626;28;20598;-66
2022/10/27 06:46:56;;;;;;;13.20;7.43;;;;;;;;;;5052491;28;20080;-66
2022/10/27 06:49:23;;;;;;;9.18;7.05;;;;;;;;;;5051951;28;20468;-65
2022/10/27 06:51:49;;;;;;;12.63;6.97;;;;;;;;;;5052639;28;20506;-66
2022/10/27 06:54:16;;;;;;;8.75;6.65;;;;;;;;;;5052450;28;20143;-66
2022/10/27 06:56:43;;;;;;;11.68;6.82;;;;;;;;;;5052238;28;20492;-66
2022/10/27 06:59:09;;;;;;;12.05;7.82;;;;;;;;;;5051919;28;20079;-66
2022/10/27 07:01:36;;;;;;;16.52;8.15;;;;;;;;;;5052102;28;20053;-66
2022/10/27 07:04:03;;;;;;;17.70;6.97;;;;;;;;;;5051588;28;20219;-65
2022/10/27 07:06:29;;;;;;;15.20;7.30;;;;;;;;;;5052259;28;20427;-65
2022/10/27 07:08:56;;;;;;;14.90;7.22;;;;;;;;;;5051228;28;20131;-66
2022/10/27 07:11:27;;;;;;;9.85;6.78;;;;;;;;;;5051992;28;20079;-66
2022/10/27 07:13:54;;;;;;;14.82;7.38;;;;;;;;;;5051885;28;20102;-65
2022/10/27 07:16:21;;;;;;;14.43;7.15;;;;;;;;;;5052054;28;20076;-65
2022/10/27 07:18:47;;;;;;;15.00;8.55;;;;;;;;;;5051257;28;20080;-66
2022/10/27 07:21:14;;;;;;;16.75;10.10;;;;;;;;;;5052022;28;20094;-66
2022/10/27 07:23:41;;;;;;;18.52;10.32;;;;;;;;;;5051819;28;20055;-65
2022/10/27 07:26:07;;;;;;;13.00;8.20;;;;;;;;;;5051759;28;20127;-65
2022/10/27 07:28:34;;;;;;;16.65;9.55;;;;;;;;;;5050797;28;20083;-66
2022/10/27 07:31:01;;;;;;;14.45;9.55;;;;;;;;;;5051746;28;20053;-65
2022/10/27 07:33:27;;;;;;;14.27;9.65;;;;;;;;;;5051726;28;20144;-65
2022/10/27 07:35:54;;;;;;;15.43;10.27;;;;;;;;;;5051723;28;20087;-66
2022/10/27 07:38:21;;;;;;;17.17;10.85;;;;;;;;;;5050781;28;20083;-66
2022/10/27 07:40:47;;;;;;;15.32;10.40;;;;;;;;;;5051685;28;20484;-66
2022/10/27 07:43:14;;;;;;;19.95;12.07;;;;;;;;;;5051699;28;20507;-66
2022/10/27 07:45:41;;;;;;;19.67;12.95;;;;;;;;;;5051694;28;20045;-65
2022/10/27 07:48:12;;;;;;;23.13;12.63;;;;;;;;;;5051232;28;20802;-66
2022/10/27 07:50:39;;;;;;;19.95;12.00;;;;;;;;;;5051434;28;20049;-66
2022/10/27 07:53:06;;;;;;;16.80;10.65;;;;;;;;;;5051379;28;20156;-66
2022/10/27 07:55:35;;;;;;;16.13;10.88;;;;;;;;;;5050424;28;20135;-66
2022/10/27 07:58:20;;;;;;;16.27;9.70;;;;;;;;;;5051024;28;20053;-65
2022/10/27 08:00:47;;;;;;;16.05;10.35;;;;;;;;;;5051306;28;20069;-66
2022/10/27 08:03:20;;;;;;;20.58;10.68;;;;;;;;;;5051305;28;20110;-66
2022/10/27 08:05:47;;;;;;;16.50;9.40;;;;;;;;;;5051606;28;20049;-66
2022/10/27 08:08:14;;;;;;;18.58;9.73;;;;;;;;;;5051101;28;20049;-66
2022/10/27 08:10:42;;;;;;;14.88;9.60;;;;;;;;;;5051734;28;20072;-66
2022/10/27 08:13:09;;;;;;;13.50;9.38;;;;;;;;;;5051346;28;20087;-66
2022/10/27 08:15:36;;;;;;;15.55;10.20;;;;;;;;;;5053944;28;20045;-66
2022/10/27 08:18:03;;;;;;;18.05;9.63;;;;;;;;;;5054636;28;20139;-66
2022/10/27 08:20:32;;;;;;;13.55;10.18;;;;;;;;;;5055089;28;20102;-66
2022/10/27 08:23:03;;;;;;;17.98;9.93;;;;;;;;;;5055182;28;20072;-65
2022/10/27 08:25:30;;;;;;;19.20;9.63;;;;;;;;;;5055248;28;20427;-65
2022/10/27 08:27:57;;;;;;;16.05;9.40;;;;;;;;;;5054621;28;20079;-65
2022/10/27 08:30:29;;;;;;;18.05;9.77;;;;;;;;;;5054909;28;20053;-66
2022/10/27 08:33:02;;;;;;;15.60;8.32;;;;;;;;;;5055361;28;20052;-66
2022/10/27 08:35:30;;;;;;;13.00;8.20;;;;;;;;;;5055394;28;20053;-66
2022/10/27 08:38:23;;;;;;;15.88;8.10;;;;;;;;;;5054330;28;20461;-66
2022/10/27 08:40:55;;;;;;;12.52;7.60;;;;;;;;;;5033759;28;20144;-66
2022/10/27 08:43:31;;;;;;;13.02;8.32;;;;;;;;;;5035227;28;20053;-66
2022/10/27 08:46:01;;;;;;;11.40;7.43;;;;;;;;;;5034854;28;20046;-64
2022/10/27 08:48:28;;;;;;;13.75;6.63;;;;;;;;;;5034104;28;20053;-64
2022/10/27 08:50:55;;;;;;;10.32;7.50;;;;;;;;;;5037034;28;20056;-64
2022/10/27 08:53:25;;;;;;;9.43;7.40;;;;;;;;;;5052788;28;20044;-64
2022/10/27 08:55:54;;;;;;;12.02;7.03;;;;;;;;;;5053523;28;20076;-63
2022/10/27 08:58:44;;;;;;;13.13;7.15;;;;;;;;;;5036674;28;20133;-64
2022/10/27 09:01:29;;;;;;;11.77;6.43;;;;;;;;;;5054503;28;20049;-64
2022/10/27 09:04:28;;;;;;;12.40;6.18;;;;;;;;;;5054744;28;20488;-63
2022/10/27 09:07:16;;;;;;;10.00;5.72;;;;;;;;;;5054166;28;20045;-62
2022/10/27 09:09:54;;;;;;;9.02;4.88;;;;;;;;;;5053581;28;20099;-62
2022/10/27 09:12:45;;;;;;;9.18;4.70;;;;;;;;;;5053110;28;20081;-65
2022/10/27 09:15:37;;;;;;;13.13;4.35;;;;;;;;;;5054335;28;20171;-65
2022/10/27 09:18:12;;;;;;;14.63;4.13;;;;;;;;;;5053609;28;20139;-62
2022/10/27 09:21:00;;;;;;;8.50;4.78;;;;;;;;;;5037296;28;20491;-66
2022/10/27 09:23:37;;;;;;;6.70;3.72;;;;;;;;;;5054258;28;20103;-65
2022/10/27 09:26:03;;;;;;;9.63;4.13;;;;;;;;;;5052088;28;20073;-65
2022/10/27 09:28:41;;;;;;;5.78;2.88;;;;;;;;;;5052093;28;20134;-66
2022/10/27 09:31:12;;;;;;;6.22;3.20;;;;;;;;;;5052756;28;20073;-64
2022/10/27 09:33:39;;;;;;;8.05;3.38;;;;;;;;;;5034916;28;20220;-65
2022/10/27 09:36:12;;;;;;;9.45;3.40;;;;;;;;;;5035922;28;20118;-65
2022/10/27 09:38:39;;;;;;;10.48;3.65;;;;;;;;;;5032146;28;20053;-65
2022/10/27 09:41:06;;;;;;;7.32;3.22;;;;;;;;;;5033823;28;20054;-65
2022/10/27 09:43:33;;;;;;;7.75;3.60;;;;;;;;;;5032616;28;20049;-62
2022/10/27 09:46:23;;;;;;;7.40;3.13;;;;;;;;;;5034421;28;20045;-63
2022/10/27 09:48:59;;;;;;;9.45;3.17;;;;;;;;;;5036262;28;20097;-63
2022/10/27 09:51:29;;;;;;;6.80;3.20;;;;;;;;;;5036105;28;20092;-63
2022/10/27 09:53:56;;;;;;;6.90;2.90;;;;;;;;;;5052445;28;20053;-63
2022/10/27 09:56:25;;;;;;;7.50;2.92;;;;;;;;;;5053533;28;20103;-63
2022/10/27 09:58:57;;;;;;;6.95;3.55;;;;;;;;;;5051720;28;20048;-63
2022/10/27 10:01:48;;;;;;;11.82;3.80;;;;;;;;;;5052226;28;20110;-63
2022/10/27 10:04:21;;;;;;;8.15;3.22;;;;;;;;;;5052308;28;20075;-63
2022/10/27 10:07:00;;;;;;;9.00;3.00;;;;;;;;;;5036821;28;20079;-62
2022/10/27 10:09:27;;;;;;;8.95;2.97;;;;;;;;;;5052585;28;20060;-63
2022/10/27 10:12:15;;;;;;;11.90;3.53;;;;;;;;;;5053434;28;20049;-63
2022/10/27 10:14:48;;;;;;;8.60;2.60;;;;;;;;;;5053564;28;20052;-64
2022/10/27 10:17:25;;;;;;;9.13;3.10;;;;;;;;;;5053545;28;20068;-64
2022/10/27 10:19:55;;;;;;;7.32;3.00;;;;;;;;;;5051386;28;20076;-64
2022/10/27 10:22:29;;;;;;;6.72;2.42;;;;;;;;;;5052019;28;20362;-64
2022/10/27 10:24:58;;;;;;;9.07;3.28;;;;;;;;;;5051808;28;20072;-63
2022/10/27 10:27:30;;;;;;;10.50;3.60;;;;;;;;;;5035383;28;20098;-64
2022/10/27 10:30:01;;;;;;;9.68;2.85;;;;;;;;;;5051194;28;20048;-64
2022/10/27 10:32:34;;;;;;;7.13;3.33;;;;;;;;;;5052943;28;20053;-64
2022/10/27 10:35:01;;;;;;;9.13;3.08;;;;;;;;;;5052836;28;20060;-65
2022/10/27 10:37:46;;;;;;;9.93;3.22;;;;;;;;;;5052564;28;20049;-63
2022/10/27 10:40:13;;;;;;;9.38;2.70;;;;;;;;;;5051653;28;20071;-64
2022/10/27 10:42:43;;;;;;;9.82;3.03;;;;;;;;;;5052675;28;20553;-64
2022/10/27 10:45:17;;;;;;;7.75;2.78;;;;;;;;;;5051481;28;20082;-64
2022/10/27 10:47:55;;;;;;;7.57;3.25;;;;;;;;;;5052272;28;20440;-64
2022/10/27 10:50:21;;;;;;;7.85;3.10;;;;;;;;;;5035560;28;20044;-64
2022/10/27 10:52:49;;;;;;;9.63;3.53;;;;;;;;;;5052737;28;20053;-65
2022/10/27 10:55:24;;;;;;;10.05;3.13;;;;;;;;;;5051409;28;20071;-65
2022/10/27 10:57:53;;;;;;;7.53;2.80;;;;;;;;;;5050775;28;20041;-65
2022/10/27 11:00:20;;;;;;;7.25;3.15;;;;;;;;;;5051109;28;20485;-65
2022/10/27 11:03:12;;;;;;;7.90;2.90;;;;;;;;;;5051383;28;20633;-65
2022/10/27 11:05:39;;;;;;;5.10;2.57;;;;;;;;;;5044243;28;20428;-64
2022/10/27 11:08:18;;;;;;;8.00;3.35;;;;;;;;;;5033802;28;20095;-64
2022/10/27 11:10:44;;;;;;;10.90;3.05;;;;;;;;;;5052128;23;20071;-64
2022/10/27 11:13:19;;;;;;;9.65;2.83;;;;;;;;;;5034759;28;20147;-61
2022/10/27 11:15:47;;;;;;;7.15;2.88;;;;;;;;;;5051324;28;20049;-63
2022/10/27 11:18:50;;;;;;;12.45;4.20;;;;;;;;;;5051580;28;20041;-63
2022/10/27 11:21:51;;;;;;;8.88;2.80;;;;;;;;;;5030935;28;20046;-63
2022/10/27 11:24:24;;;;;;;6.32;2.17;;;;;;;;;;5020466;28;20132;-63
2022/10/27 11:26:54;;;;;;;4.93;2.13;;;;;;;;;;5030977;28;20045;-64
2022/10/27 11:29:25;;;;;;;6.10;2.35;;;;;;;;;;5015109;28;20100;-63
2022/10/27 11:32:10;;;;;;;8.35;2.72;;;;;;;;;;5011002;28;20081;-61
2022/10/27 11:34:41;;;;;;;7.43;3.20;;;;;;;;;;5012304;28;20046;-64
2022/10/27 11:37:29;;;;;;;8.48;3.35;;;;;;;;;;5027307;28;20084;-63
2022/10/27 11:40:08;;;;;;;8.40;2.60;;;;;;;;;;5012114;28;20054;-62
2022/10/27 11:42:41;;;;;;;10.73;3.22;;;;;;;;;;5027314;28;20053;-63
2022/10/27 11:45:13;;;;;;;11.18;2.83;;;;;;;;;;5011118;28;20054;-63
2022/10/27 11:47:49;;;;;;;10.95;3.50;;;;;;;;;;5012067;28;20042;-62
2022/10/27 11:51:00;;;;;;;12.00;3.72;;;;;;;;;;5013312;28;20069;-63
2022/10/27 11:53:27;;;;;;;8.20;3.33;;;;;;;;;;5009590;28;20053;-63
2022/10/27 11:56:09;;;;;;;9.07;3.58;;;;;;;;;;5009753;28;20050;-63
2022/10/27 11:59:06;;;;;;;8.20;2.90;;;;;;;;;;5022646;28;20401;-64
2022/10/27 12:01:56;;;;;;;7.15;2.47;;;;;;;;;;5031579;28;20527;-63
2022/10/27 12:04:28;;;;;;;9.63;3.03;;;;;;;;;;5046789;28;20055;-62
2022/10/27 12:06:55;;;;;;;5.72;2.35;;;;;;;;;;5031529;28;20050;-63
2022/10/27 12:09:59;;;;;;;4.90;2.05;;;;;;;;;;5030862;28;20092;-63
2022/10/27 12:12:37;;;;;;;8.32;2.20;;;;;;;;;;5032107;28;20503;-62
2022/10/27 12:15:13;;;;;;;4.78;2.05;;;;;;;;;;5030406;28;20397;-63
2022/10/27 12:17:51;;;;;;;14.85;2.58;;;;;;;;;;5046706;28;20585;-63
2022/10/27 12:20:23;;;;;;;5.07;2.10;;;;;;;;;;5046721;28;20056;-63
2022/10/27 12:23:10;;;;;;;7.23;2.13;;;;;;;;;;5030438;28;20092;-64
2022/10/27 12:26:13;;;;;;;7.45;2.58;;;;;;;;;;5046831;28;20083;-63
2022/10/27 12:28:39;;;;;;;6.13;1.95;;;;;;;;;;4997679;28;20522;-64
2022/10/27 12:31:11;;;;;;;5.10;1.77;;;;;;;;;;5031771;28;20049;-64
2022/10/27 12:33:39;;;;;;;6.15;2.30;;;;;;;;;;5057409;28;20095;-64
2022/10/27 12:36:25;;;;;;;5.28;1.80;;;;;;;;;;5064109;28;20104;-62
2022/10/27 12:39:12;;;;;;;5.22;1.90;;;;;;;;;;5054085;28;20068;-64
2022/10/27 12:42:06;;;;;;;6.13;1.90;;;;;;;;;;5028751;28;20081;-63
2022/10/27 12:44:39;;;;;;;3.40;1.52;;;;;;;;;;5042008;28;20050;-63
2022/10/27 12:47:12;;;;;;;4.38;1.90;;;;;;;;;;5043805;28;20045;-62
2022/10/27 12:50:14;;;;;;;5.63;2.50;;;;;;;;;;5022930;28;20054;-65
2022/10/27 12:52:56;;;;;;;4.88;1.77;;;;;;;;;;5028039;28;20053;-64
2022/10/27 12:55:40;;;;;;;5.00;1.88;;;;;;;;;;5023752;28;20057;-65
2022/10/27 12:58:48;;;;;;;3.92;2.22;;;;;;;;;;5026065;28;20050;-65
2022/10/27 13:01:39;;;;;;;3.80;1.95;;;;;;;;;;5023965;28;20054;-63
2022/10/27 13:04:47;;;;;;;6.05;1.75;;;;;;;;;;5045272;28;20058;-63
2022/10/27 13:07:29;;;;;;;4.95;1.83;;;;;;;;;;5045439;28;20045;-63
2022/10/27 13:10:21;;;;;;;5.13;1.65;;;;;;;;;;5028989;28;20053;-64
2022/10/27 13:13:12;;;;;;;4.38;1.95;;;;;;;;;;5030133;28;20575;-63
2022/10/27 13:16:01;;;;;;;4.22;1.40;;;;;;;;;;5014052;28;20054;-64
2022/10/27 13:19:15;;;;;;;7.03;2.15;;;;;;;;;;5014666;28;20216;-65
2022/10/27 13:21:43;;;;;;;5.88;1.52;;;;;;;;;;4973258;28;20137;-65
2022/10/27 13:24:21;;;;;;;5.00;1.83;;;;;;;;;;5007264;28;20141;-65
2022/10/27 13:26:54;;;;;;;3.38;1.42;;;;;;;;;;5013843;28;20100;-65
2022/10/27 13:29:36;;;;;;;2.47;1.40;;;;;;;;;;5014178;28;20527;-64
2022/10/27 13:32:47;;;;;;;4.25;1.50;;;;;;;;;;5031787;28;20050;-64
2022/10/27 13:35:13;;;;;;;4.20;1.40;;;;;;;;;;5028924;28;20045;-64
2022/10/27 13:38:08;;;;;;;7.40;1.80;;;;;;;;;;5034339;28;20137;-63
2022/10/27 13:40:37;;;;;;;9.05;2.17;;;;;;;;;;5034056;28;20053;-63
2022/10/27 13:43:21;;;;;;;5.00;1.88;;;;;;;;;;5034055;28;20073;-65
2022/10/27 13:45:50;;;;;;;4.80;2.20;;;;;;;;;;5034527;28;20131;-64
2022/10/27 13:48:16;;;;;;;9.35;2.22;;;;;;;;;;5033566;28;20046;-63
2022/10/27 13:50:51;;;;;;;5.72;1.75;;;;;;;;;;5034055;28;20152;-68
2022/10/27 13:53:17;;;;;;;6.10;1.85;;;;;;;;;;5027417;28;20120;-65
2022/10/27 13:55:51;;;;;;;3.95;1.65;;;;;;;;;;5022013;28;20055;-65
2022/10/27 13:58:17;;;;;;;5.03;2.08;;;;;;;;;;5035142;28;20136;-65
2022/10/27 14:01:02;;;;;;;4.00;1.70;;;;;;;;;;5035160;28;20057;-65
2022/10/27 14:03:58;;;;;;;4.07;1.70;;;;;;;;;;5034757;28;20049;-64
2022/10/27 14:06:41;;;;;;;6.47;1.95;;;;;;;;;;5014147;28;20081;-64
2022/10/27 14:09:19;;;;;;;4.97;1.80;;;;;;;;;;5012263;28;20096;-64
2022/10/27 14:11:47;;;;;;;4.63;1.65;;;;;;;;;;5012437;28;20120;-63
2022/10/27 14:14:29;;;;;;;5.80;1.75;;;;;;;;;;5028424;28;20079;-65
2022/10/27 14:16:59;;;;;;;6.07;1.98;;;;;;;;;;5022586;28;20123;-65
2022/10/27 14:19:30;;;;;;;6.63;1.73;;;;;;;;;;5015500;28;20126;-63
2022/10/27 14:21:57;;;;;;;4.95;1.90;;;;;;;;;;5032207;28;20081;-65
2022/10/27 14:24:25;;;;;;;4.40;1.60;;;;;;;;;;5032105;28;20106;-64
2022/10/27 14:26:59;;;;;;;5.00;1.70;;;;;;;;;;5032131;28;20096;-64
2022/10/27 14:29:26;;;;;;;5.05;1.63;;;;;;;;;;5032653;28;20457;-64
2022/10/27 14:32:22;;;;;;;7.88;1.85;;;;;;;;;;5033284;28;20136;-64
2022/10/27 14:34:49;;;;;;;5.00;1.88;;;;;;;;;;5031857;28;20458;-64
2022/10/27 14:37:25;;;;;;;3.92;2.03;;;;;;;;;;5032988;28;20053;-64
2022/10/27 14:39:52;;;;;;;7.05;2.00;;;;;;;;;;5031151;28;20269;-65
2022/10/27 14:42:20;;;;;;;5.72;1.67;;;;;;;;;;5047075;28;20053;-63
2022/10/27 14:44:51;;;;;;;5.03;1.65;;;;;;;;;;5048360;28;20073;-63
2022/10/27 14:47:18;;;;;;;4.70;1.87;;;;;;;;;;5031912;28;20100;-64
2022/10/27 14:49:50;;;;;;;5.40;1.60;;;;;;;;;;5031996;28;20292;-64
2022/10/27 14:52:24;;;;;;;5.68;2.38;;;;;;;;;;5031548;28;20081;-63
2022/10/27 14:54:54;;;;;;;9.27;2.15;;;;;;;;;;5016154;28;20049;-64
2022/10/27 14:57:34;;;;;;;6.78;1.85;;;;;;;;;;5031577;28;20474;-64
2022/10/27 15:00:16;;;;;;;7.13;1.63;;;;;;;;;;5031813;28;20049;-64
2022/10/27 15:02:43;;;;;;;4.90;1.98;;;;;;;;;;5031407;28;20562;-63
2022/10/27 15:05:19;;;;;;;7.63;2.05;;;;;;;;;;5032540;28;20049;-64
2022/10/27 15:07:48;;;;;;;5.28;2.13;;;;;;;;;;5046885;28;20045;-64
2022/10/27 15:10:16;;;;;;;5.82;2.20;;;;;;;;;;5030955;28;20483;-64